Time;durP1;ratioP1;P1;durP2;ratioP2;P2;SDS_P1;SDS_P2;PMS_P1;PMS_P2;Temp;Humidity;BMP_temperature;BMP_pressure;BME280_temperature;BME280_humidity;BME280_pressure;Samples;Min_cycle;Max_cycle;Signal;HPM_P1;HPM_P2
2021/10/02 00:31:02;;;;;;;5.17;4.13;;;13.20;99.90;;;;;;4995421;28;20900;-73
2021/10/02 00:35:21;;;;;;;4.00;3.63;;;12.70;99.90;;;;;;5014385;28;20383;-71
2021/10/02 00:41:34;;;;;;;6.60;4.45;;;12.60;99.90;;;;;;4994364;28;20458;-73
2021/10/02 00:46:44;;;;;;;4.65;3.90;;;12.50;99.90;;;;;;5003834;28;20468;-72
2021/10/02 00:49:10;;;;;;;3.72;3.42;;;12.50;99.90;;;;;;4994470;28;20601;-72
2021/10/02 00:51:38;;;;;;;4.88;3.95;;;12.50;99.90;;;;;;4989853;28;20543;-72
2021/10/02 00:54:05;;;;;;;3.60;3.30;;;12.50;99.90;;;;;;5013756;28;20213;-73
2021/10/02 00:56:30;;;;;;;4.60;4.10;;;12.50;99.90;;;;;;5006596;28;20230;-73
2021/10/02 00:58:56;;;;;;;4.03;3.70;;;12.40;99.90;;;;;;4994105;28;20482;-72
2021/10/02 01:01:33;;;;;;;4.33;3.80;;;12.50;99.90;;;;;;4994272;28;20690;-72
2021/10/02 01:04:22;;;;;;;5.90;4.38;;;12.40;99.90;;;;;;4998735;28;20262;-73
2021/10/02 01:07:12;;;;;;;5.90;4.30;;;12.40;99.90;;;;;;4995963;28;20204;-72
2021/10/02 01:10:11;;;;;;;5.43;4.70;;;12.40;99.90;;;;;;4994111;28;20192;-71
2021/10/02 01:13:18;;;;;;;4.75;4.35;;;12.40;99.90;;;;;;4994030;28;20199;-71
2021/10/02 01:16:17;;;;;;;7.20;5.00;;;12.30;99.90;;;;;;4971303;28;20195;-72
2021/10/02 01:19:06;;;;;;;5.80;4.30;;;12.30;99.90;;;;;;4993521;28;20200;-72
2021/10/02 01:22:11;;;;;;;6.00;4.18;;;12.30;99.90;;;;;;4974535;28;20204;-72
2021/10/02 01:24:56;;;;;;;5.50;4.77;;;12.30;99.90;;;;;;5001980;28;20183;-73
2021/10/02 01:27:47;;;;;;;6.35;4.95;;;12.30;99.90;;;;;;5011942;28;20406;-72
2021/10/02 01:30:22;;;;;;;5.10;4.67;;;12.30;99.90;;;;;;5013540;28;20254;-72
2021/10/02 01:33:02;;;;;;;4.37;3.97;;;12.30;99.90;;;;;;5013466;28;21026;-73
2021/10/02 01:35:46;;;;;;;5.40;4.22;;;12.30;99.90;;;;;;5013029;28;20767;-71
2021/10/02 01:49:18;;;;;;;5.30;3.90;;;12.30;99.90;;;;;;4993825;28;20963;-72
2021/10/02 01:51:45;;;;;;;5.90;3.73;;;12.40;99.90;;;;;;4993838;28;20208;-71
2021/10/02 01:54:13;;;;;;;4.43;4.03;;;12.40;99.90;;;;;;4995806;28;20455;-71
2021/10/02 01:56:41;;;;;;;7.03;4.50;;;12.40;99.90;;;;;;4993319;28;20644;-73
2021/10/02 01:59:10;;;;;;;5.00;3.30;;;12.40;99.90;;;;;;4993626;28;20497;-73
2021/10/02 02:01:41;;;;;;;4.27;3.87;;;12.40;99.90;;;;;;4993592;28;20188;-73
2021/10/02 02:04:08;;;;;;;4.70;4.13;;;12.40;99.90;;;;;;5010036;28;20433;-72
2021/10/02 02:06:35;;;;;;;5.33;4.10;;;12.40;99.90;;;;;;5012668;28;20628;-73
2021/10/02 02:09:01;;;;;;;4.17;3.40;;;12.40;99.90;;;;;;5006109;28;20790;-72
2021/10/02 02:11:29;;;;;;;4.57;4.20;;;12.40;99.90;;;;;;4993480;28;20795;-73
2021/10/02 02:13:57;;;;;;;4.80;3.97;;;12.40;99.90;;;;;;4991283;28;20233;-72
2021/10/02 02:16:23;;;;;;;4.37;4.00;;;12.30;99.90;;;;;;5014529;28;20201;-72
2021/10/02 02:18:50;;;;;;;8.87;3.90;;;12.30;99.90;;;;;;5014301;28;20453;-71
2021/10/02 02:21:16;;;;;;;6.40;4.53;;;12.30;99.90;;;;;;5003822;28;20432;-71
2021/10/02 02:23:42;;;;;;;3.85;3.55;;;12.20;99.90;;;;;;5007122;28;20279;-73
2021/10/02 02:26:09;;;;;;;4.37;4.00;;;12.20;99.90;;;;;;5012935;28;20583;-71
2021/10/02 02:28:37;;;;;;;7.05;4.10;;;12.20;99.90;;;;;;5014719;28;20449;-73
2021/10/02 02:31:07;;;;;;;4.40;3.90;;;12.30;99.90;;;;;;5016507;28;20670;-73
2021/10/02 02:33:34;;;;;;;4.35;3.95;;;12.30;99.90;;;;;;5004696;28;20175;-72
2021/10/02 02:36:02;;;;;;;3.67;3.35;;;12.30;99.90;;;;;;5006492;28;20176;-71
2021/10/02 02:38:28;;;;;;;4.90;4.05;;;12.20;99.90;;;;;;5015847;28;20190;-72
2021/10/02 02:40:54;;;;;;;4.70;3.78;;;12.20;99.90;;;;;;5016239;28;20570;-71
2021/10/02 02:43:20;;;;;;;5.70;3.57;;;12.10;99.90;;;;;;5006534;28;20173;-74
2021/10/02 02:45:54;;;;;;;5.23;3.53;;;12.10;99.90;;;;;;4996707;28;20176;-72
2021/10/02 02:48:27;;;;;;;4.10;3.67;;;12.10;99.90;;;;;;4996193;28;20482;-72
2021/10/02 02:51:04;;;;;;;4.15;3.58;;;12.10;99.90;;;;;;5009451;28;20239;-72
2021/10/02 02:53:59;;;;;;;4.63;4.22;;;12.10;99.90;;;;;;5005790;28;20255;-72
2021/10/02 02:56:38;;;;;;;6.63;4.55;;;12.10;99.90;;;;;;4996542;28;20173;-72
2021/10/02 02:59:15;;;;;;;4.40;4.00;;;12.10;99.90;;;;;;4978711;28;20282;-71
2021/10/02 03:01:43;;;;;;;4.27;3.90;;;12.10;99.90;;;;;;4996681;28;20168;-72
2021/10/02 03:04:15;;;;;;;7.57;3.60;;;12.00;99.90;;;;;;5009283;28;20946;-73
2021/10/02 03:06:48;;;;;;;4.40;3.83;;;12.10;99.90;;;;;;4978567;28;20457;-73
2021/10/02 03:09:15;;;;;;;4.53;4.00;;;12.10;99.90;;;;;;4996284;28;20471;-72
2021/10/02 03:11:46;;;;;;;5.63;4.67;;;12.10;99.90;;;;;;5001968;28;20459;-72
2021/10/02 03:14:14;;;;;;;4.15;3.75;;;12.10;99.90;;;;;;5015594;28;20749;-72
2021/10/02 03:16:41;;;;;;;6.37;4.70;;;12.10;99.90;;;;;;5015349;28;20175;-72
2021/10/02 03:19:08;;;;;;;4.33;3.90;;;12.10;99.90;;;;;;5013071;28;20441;-73
2021/10/02 03:21:35;;;;;;;5.65;3.83;;;12.10;99.90;;;;;;4999824;28;20934;-73
2021/10/02 03:24:02;;;;;;;4.40;4.00;;;12.10;99.90;;;;;;5015199;28;20177;-73
2021/10/02 03:26:30;;;;;;;5.03;4.53;;;12.20;99.90;;;;;;5015433;28;20176;-74
2021/10/02 03:28:56;;;;;;;4.23;3.83;;;12.10;99.90;;;;;;5015229;28;20187;-71
2021/10/02 03:31:25;;;;;;;7.57;4.93;;;12.10;99.90;;;;;;5012747;28;20477;-73
2021/10/02 03:33:51;;;;;;;5.97;4.43;;;12.10;99.90;;;;;;4980248;28;20469;-72
2021/10/02 03:36:18;;;;;;;5.07;4.57;;;12.10;99.90;;;;;;5009939;28;20778;-72
2021/10/02 03:38:45;;;;;;;4.70;3.65;;;12.10;99.90;;;;;;4977192;28;20527;-71
2021/10/02 03:41:11;;;;;;;4.40;4.00;;;12.10;99.90;;;;;;4995374;28;20196;-72
2021/10/02 03:43:37;;;;;;;7.18;4.50;;;12.00;99.90;;;;;;5013899;28;20437;-71
2021/10/02 03:46:03;;;;;;;3.33;2.97;;;12.00;99.90;;;;;;5013875;28;20238;-73
2021/10/02 03:48:30;;;;;;;5.40;4.13;;;12.00;99.90;;;;;;5012480;28;20251;-72
2021/10/02 03:50:58;;;;;;;10.38;4.10;;;12.00;99.90;;;;;;5015226;28;20452;-71
2021/10/02 03:53:24;;;;;;;6.20;4.70;;;12.10;99.90;;;;;;5014950;28;20161;-73
2021/10/02 03:55:50;;;;;;;4.93;4.47;;;12.00;99.90;;;;;;5015218;28;20448;-70
2021/10/02 03:58:16;;;;;;;3.80;3.50;;;12.00;99.90;;;;;;5012563;28;20538;-72
2021/10/02 04:00:41;;;;;;;4.20;3.73;;;12.00;99.90;;;;;;4995249;28;20198;-73
2021/10/02 04:03:07;;;;;;;4.77;4.37;;;11.90;99.90;;;;;;4999375;28;20229;-72
2021/10/02 04:05:33;;;;;;;5.47;4.37;;;11.90;99.90;;;;;;5013393;28;20500;-72
2021/10/02 04:07:58;;;;;;;5.37;4.87;;;12.00;99.90;;;;;;5012961;28;20543;-73
2021/10/02 04:10:24;;;;;;;4.57;3.80;;;12.00;99.90;;;;;;4995674;28;20192;-73
2021/10/02 04:12:50;;;;;;;4.93;3.30;;;12.00;99.90;;;;;;4995024;28;20675;-72
2021/10/02 04:15:15;;;;;;;4.43;3.93;;;12.00;99.90;;;;;;4994853;28;20168;-72
2021/10/02 04:17:41;;;;;;;4.73;4.27;;;12.00;99.90;;;;;;4994372;28;20163;-73
2021/10/02 04:20:07;;;;;;;3.73;3.40;;;12.00;99.90;;;;;;5010620;28;20195;-74
2021/10/02 04:22:33;;;;;;;5.17;4.40;;;12.00;99.90;;;;;;5014486;28;20172;-72
2021/10/02 04:24:59;;;;;;;4.03;3.30;;;12.00;99.90;;;;;;5014394;28;20498;-73
2021/10/02 04:27:25;;;;;;;4.40;3.87;;;12.00;99.90;;;;;;5012747;28;20398;-72
2021/10/02 04:29:50;;;;;;;6.63;3.73;;;12.00;99.90;;;;;;5005557;28;20453;-73
2021/10/02 04:32:16;;;;;;;4.47;4.07;;;12.10;99.90;;;;;;5024742;28;20202;-72
2021/10/02 04:34:42;;;;;;;4.20;3.50;;;12.10;99.90;;;;;;5013353;28;20175;-73
2021/10/02 04:37:08;;;;;;;4.77;4.27;;;12.10;99.90;;;;;;4993995;28;20169;-72
2021/10/02 04:39:34;;;;;;;5.73;5.23;;;12.10;99.90;;;;;;5005287;28;20228;-72
2021/10/02 04:42:00;;;;;;;4.70;4.30;;;12.10;99.90;;;;;;5014127;28;20871;-72
2021/10/02 04:44:25;;;;;;;3.70;3.40;;;12.10;99.90;;;;;;5014103;28;20378;-72
2021/10/02 04:46:52;;;;;;;3.70;3.40;;;12.00;99.90;;;;;;5013815;28;20490;-72
2021/10/02 04:49:18;;;;;;;6.43;5.05;;;12.00;99.90;;;;;;5004754;28;20202;-71
2021/10/02 04:51:43;;;;;;;3.43;3.13;;;12.00;99.90;;;;;;4996269;28;20208;-72
2021/10/02 04:54:10;;;;;;;4.40;3.77;;;12.00;99.90;;;;;;5014028;28;20175;-71
2021/10/02 04:56:37;;;;;;;4.20;3.67;;;12.00;99.90;;;;;;4999770;28;20182;-71
2021/10/02 04:59:03;;;;;;;6.03;4.32;;;12.00;99.90;;;;;;5000771;28;20438;-70
2021/10/02 05:01:31;;;;;;;5.00;4.50;;;12.00;99.90;;;;;;5014148;28;20186;-72
2021/10/02 05:03:58;;;;;;;4.50;3.75;;;12.00;99.90;;;;;;5013880;28;20416;-70
2021/10/02 05:06:24;;;;;;;3.42;3.13;;;11.90;99.90;;;;;;5011971;28;20563;-72
2021/10/02 05:08:50;;;;;;;6.07;3.80;;;11.90;99.90;;;;;;4999183;28;20199;-70
2021/10/02 05:11:16;;;;;;;5.07;4.68;;;11.80;99.90;;;;;;5015404;28;20554;-72
2021/10/02 05:13:42;;;;;;;5.30;4.80;;;11.80;99.90;;;;;;5015054;28;20164;-71
2021/10/02 05:16:08;;;;;;;3.00;2.80;;;11.80;99.90;;;;;;5014448;28;20171;-72
2021/10/02 05:18:34;;;;;;;3.80;3.30;;;11.80;99.90;;;;;;4994867;28;20198;-72
2021/10/02 05:20:59;;;;;;;4.60;3.83;;;11.80;99.90;;;;;;5012807;28;20266;-72
2021/10/02 05:23:25;;;;;;;4.90;4.50;;;11.90;99.90;;;;;;4976488;28;20662;-72
2021/10/02 05:25:53;;;;;;;3.65;3.00;;;11.90;99.90;;;;;;4993911;28;20177;-72
2021/10/02 05:28:20;;;;;;;5.97;4.18;;;11.80;99.90;;;;;;5005382;28;20186;-71
2021/10/02 05:30:45;;;;;;;5.90;4.30;;;11.80;99.90;;;;;;5000935;28;20346;-72
2021/10/02 05:33:11;;;;;;;4.67;3.80;;;11.90;99.90;;;;;;4993849;28;20251;-72
2021/10/02 05:35:37;;;;;;;5.47;4.70;;;11.80;99.90;;;;;;4993774;28;20183;-71
2021/10/02 05:38:03;;;;;;;5.57;3.90;;;11.80;99.90;;;;;;5002498;28;20175;-73
2021/10/02 05:40:28;;;;;;;5.20;4.73;;;11.80;99.90;;;;;;5012958;28;20206;-71
2021/10/02 05:42:54;;;;;;;4.20;3.80;;;11.80;99.90;;;;;;5013438;28;20409;-73
2021/10/02 05:45:20;;;;;;;4.40;3.45;;;11.80;99.90;;;;;;5002814;28;20426;-72
2021/10/02 05:47:47;;;;;;;3.70;3.30;;;11.80;99.90;;;;;;5000298;28;20186;-71
2021/10/02 05:50:13;;;;;;;4.32;3.90;;;11.90;99.90;;;;;;4976112;28;20967;-71
2021/10/02 05:52:38;;;;;;;5.67;4.00;;;11.90;99.90;;;;;;4993489;28;20203;-72
2021/10/02 05:55:04;;;;;;;3.97;3.60;;;11.90;99.90;;;;;;4993468;28;20173;-70
2021/10/02 05:57:30;;;;;;;6.13;4.28;;;11.90;99.90;;;;;;5005135;28;20234;-71
2021/10/02 05:59:56;;;;;;;4.30;3.90;;;11.90;99.90;;;;;;5012488;28;20199;-71
2021/10/02 06:02:21;;;;;;;4.80;3.80;;;12.10;99.90;;;;;;5013530;28;20173;-71
2021/10/02 06:04:47;;;;;;;4.50;3.80;;;12.10;99.90;;;;;;5016748;28;20179;-72
2021/10/02 06:07:13;;;;;;;6.87;4.33;;;12.20;99.90;;;;;;5007592;28;20181;-70
2021/10/02 06:09:38;;;;;;;4.20;3.80;;;12.30;99.90;;;;;;4997346;28;20656;-70
2021/10/02 06:12:05;;;;;;;4.37;3.50;;;12.40;99.90;;;;;;4997087;28;20192;-72
2021/10/02 06:14:30;;;;;;;4.77;2.93;;;12.50;99.90;;;;;;5008996;28;20172;-71
2021/10/02 06:16:56;;;;;;;5.07;3.80;;;12.70;99.90;;;;;;5010101;28;20413;-72
2021/10/02 06:19:22;;;;;;;5.10;4.10;;;12.80;99.90;;;;;;4996583;28;20248;-71
2021/10/02 06:21:48;;;;;;;3.60;3.30;;;12.90;99.90;;;;;;4979195;28;20178;-72
2021/10/02 06:24:15;;;;;;;4.00;3.70;;;13.10;99.90;;;;;;4979250;28;20179;-72
2021/10/02 06:26:40;;;;;;;4.30;3.90;;;13.30;99.90;;;;;;5004830;28;20519;-71
2021/10/02 06:29:09;;;;;;;4.90;3.30;;;13.50;99.90;;;;;;4997097;28;20996;-72
2021/10/02 06:31:36;;;;;;;4.40;3.90;;;13.70;99.90;;;;;;4979129;28;20691;-72
2021/10/02 06:34:01;;;;;;;3.87;3.57;;;13.80;99.90;;;;;;4979118;28;20422;-71
2021/10/02 06:36:28;;;;;;;4.67;3.20;;;13.80;99.90;;;;;;4997945;28;20396;-70
2021/10/02 06:38:55;;;;;;;3.83;3.40;;;13.80;99.90;;;;;;5016092;28;20209;-72
2021/10/02 06:41:21;;;;;;;4.17;3.77;;;13.80;99.90;;;;;;5015347;28;20791;-73
2021/10/02 06:43:48;;;;;;;4.00;3.60;;;13.80;99.90;;;;;;5016621;28;20484;-72
2021/10/02 06:46:13;;;;;;;4.00;3.60;;;13.80;99.90;;;;;;5016194;28;20499;-70
2021/10/02 06:48:41;;;;;;;5.00;4.13;;;13.80;99.90;;;;;;4997182;28;20490;-68
2021/10/02 06:51:07;;;;;;;5.73;5.00;;;13.80;99.90;;;;;;5010240;28;20251;-69
2021/10/02 06:53:33;;;;;;;3.97;3.57;;;13.90;99.90;;;;;;5011000;28;20425;-69
2021/10/02 06:55:58;;;;;;;4.47;3.93;;;13.80;99.90;;;;;;5009469;28;20762;-69
2021/10/02 06:58:24;;;;;;;3.53;3.20;;;13.80;99.90;;;;;;5014109;28;20178;-68
2021/10/02 07:00:52;;;;;;;3.70;3.40;;;13.90;99.90;;;;;;5015756;28;20257;-69
2021/10/02 07:03:17;;;;;;;4.87;3.60;;;14.00;99.90;;;;;;5016010;28;20180;-68
2021/10/02 07:05:43;;;;;;;4.63;4.20;;;14.00;99.90;;;;;;5007970;28;20498;-69
2021/10/02 07:08:09;;;;;;;4.90;3.97;;;14.10;99.90;;;;;;4995724;28;20174;-68
2021/10/02 07:10:34;;;;;;;5.27;4.50;;;14.20;99.90;;;;;;5004226;28;20205;-68
2021/10/02 07:13:02;;;;;;;4.93;4.50;;;14.40;99.90;;;;;;4986913;28;20201;-68
2021/10/02 07:15:28;;;;;;;5.40;4.90;;;14.50;99.90;;;;;;5006308;28;20539;-72
2021/10/02 07:17:54;;;;;;;5.33;4.13;;;14.70;99.90;;;;;;5014725;28;20385;-71
2021/10/02 07:20:22;;;;;;;5.60;5.10;;;14.90;99.90;;;;;;5006630;28;20520;-72
2021/10/02 07:22:47;;;;;;;4.80;4.30;;;15.10;99.90;;;;;;5014263;28;20167;-69
2021/10/02 07:25:15;;;;;;;4.77;4.20;;;15.30;99.90;;;;;;4999622;28;20422;-74
2021/10/02 07:27:43;;;;;;;3.97;3.47;;;15.50;99.90;;;;;;4993892;28;20175;-74
2021/10/02 07:30:11;;;;;;;4.50;4.10;;;15.80;99.90;;;;;;4994993;28;20466;-69
2021/10/02 07:32:37;;;;;;;4.43;4.03;;;16.20;99.90;;;;;;4998249;28;20786;-72
2021/10/02 07:35:03;;;;;;;8.20;3.70;;;16.70;99.90;;;;;;5013753;28;20399;-70
2021/10/02 07:37:29;;;;;;;3.90;3.60;;;17.10;99.90;;;;;;5014561;28;20414;-69
2021/10/02 07:39:55;;;;;;;2.70;2.50;;;17.50;99.90;;;;;;5014444;28;20452;-68
2021/10/02 07:42:21;;;;;;;4.97;4.57;;;17.80;99.90;;;;;;5009837;28;20186;-69
2021/10/02 07:44:52;;;;;;;4.03;3.30;;;18.10;99.90;;;;;;5015158;28;20182;-69
2021/10/02 07:47:19;;;;;;;4.60;3.80;;;18.20;99.90;;;;;;5014778;28;20406;-69
2021/10/02 07:49:49;;;;;;;4.07;3.47;;;18.30;99.90;;;;;;5010075;28;20434;-70
2021/10/02 07:52:15;;;;;;;4.80;3.10;;;18.40;99.90;;;;;;4997151;28;20497;-69
2021/10/02 07:54:41;;;;;;;3.20;2.90;;;18.50;99.90;;;;;;4995535;28;20435;-66
2021/10/02 07:57:07;;;;;;;3.13;2.90;;;19.10;99.90;;;;;;5007163;28;20419;-70
2021/10/02 07:59:34;;;;;;;4.27;3.93;;;20.00;99.90;;;;;;5010257;28;20426;-67
2021/10/02 08:02:00;;;;;;;3.87;3.57;;;21.00;99.90;;;;;;5005793;28;20192;-75
2021/10/02 08:04:25;;;;;;;3.60;3.03;;;21.80;99.90;;;;;;5000856;28;20393;-72
2021/10/02 08:06:51;;;;;;;4.40;3.03;;;22.50;98.90;;;;;;4991461;28;20408;-73
2021/10/02 08:09:17;;;;;;;10.90;3.83;;;23.00;97.10;;;;;;4992863;28;20255;-74
2021/10/02 08:11:44;;;;;;;4.50;3.73;;;23.50;96.90;;;;;;4989758;28;20203;-71
2021/10/02 08:14:11;;;;;;;3.47;3.17;;;23.80;95.40;;;;;;5011360;28;20181;-78
2021/10/02 08:16:38;;;;;;;4.40;3.83;;;24.00;95.10;;;;;;4993040;28;20422;-75
2021/10/02 08:19:07;;;;;;;3.33;3.03;;;24.00;94.50;;;;;;4993131;28;20417;-78
2021/10/02 08:21:33;;;;;;;3.80;3.43;;;24.20;94.20;;;;;;4994251;28;20502;-78
2021/10/02 08:24:02;;;;;;;3.30;3.10;;;24.40;93.30;;;;;;4994836;28;20415;-76
2021/10/02 08:26:31;;;;;;;2.87;2.63;;;24.50;93.60;;;;;;4994216;28;20940;-72
2021/10/02 08:28:58;;;;;;;2.60;2.40;;;24.80;92.70;;;;;;4998048;28;20450;-73
2021/10/02 08:31:24;;;;;;;3.37;3.07;;;25.10;92.30;;;;;;5002358;28;20777;-71
2021/10/02 08:33:51;;;;;;;3.43;3.23;;;25.20;92.10;;;;;;5001302;28;20408;-70
2021/10/02 08:36:17;;;;;;;3.27;2.67;;;25.60;91.80;;;;;;5026370;28;20383;-71
2021/10/02 08:38:43;;;;;;;2.80;2.60;;;26.10;90.80;;;;;;5026747;28;20759;-71
2021/10/02 08:41:10;;;;;;;4.00;3.63;;;26.30;88.90;;;;;;5005290;28;20197;-72
2021/10/02 08:43:38;;;;;;;3.07;2.83;;;26.60;87.60;;;;;;4999243;28;20408;-71
2021/10/02 08:46:06;;;;;;;3.40;3.10;;;26.70;86.90;;;;;;4998205;28;20454;-70
2021/10/02 08:48:32;;;;;;;3.23;2.93;;;27.20;86.20;;;;;;4999679;28;20426;-73
2021/10/02 08:51:01;;;;;;;2.67;2.47;;;27.50;83.80;;;;;;4995957;28;20423;-71
2021/10/02 08:53:30;;;;;;;2.80;2.60;;;28.20;81.60;;;;;;5003161;28;20524;-72
2021/10/02 08:55:59;;;;;;;2.87;2.67;;;28.80;79.10;;;;;;5008488;28;20921;-72
2021/10/02 08:58:24;;;;;;;3.30;3.00;;;29.20;76.70;;;;;;5000075;28;20437;-70
2021/10/02 09:00:51;;;;;;;3.63;3.27;;;29.70;74.00;;;;;;4984413;28;20485;-72
2021/10/02 09:03:19;;;;;;;3.90;3.60;;;30.00;72.50;;;;;;5009577;28;20188;-72
2021/10/02 09:05:44;;;;;;;2.17;2.07;;;30.20;71.40;;;;;;5007511;28;20517;-72
2021/10/02 09:08:10;;;;;;;2.03;1.93;;;30.50;66.70;;;;;;5010146;28;20513;-72
2021/10/02 09:10:37;;;;;;;2.93;1.40;;;30.80;60.70;;;;;;4999625;28;20221;-70
2021/10/02 09:13:02;;;;;;;2.23;1.83;;;31.10;58.00;;;;;;5017761;28;20265;-71
2021/10/02 09:15:29;;;;;;;2.30;1.77;;;31.40;58.20;;;;;;5013111;28;20420;-72
2021/10/02 09:17:56;;;;;;;1.67;1.57;;;31.40;58.50;;;;;;5007517;28;20194;-70
2021/10/02 09:20:23;;;;;;;1.80;1.70;;;31.60;57.80;;;;;;4993957;28;20434;-70
2021/10/02 09:23:12;;;;;;;1.53;1.30;;;31.90;56.20;;;;;;4994827;28;21025;-71
2021/10/02 09:25:48;;;;;;;1.70;1.57;;;32.30;55.50;;;;;;5006875;28;20832;-71
2021/10/02 09:28:15;;;;;;;1.90;1.80;;;32.40;53.10;;;;;;5005734;28;20765;-69
2021/10/02 09:30:43;;;;;;;2.10;1.90;;;32.70;52.70;;;;;;5001853;28;20456;-71
2021/10/02 09:33:19;;;;;;;1.60;1.50;;;32.90;52.10;;;;;;5005739;28;20466;-69
2021/10/02 09:35:45;;;;;;;2.07;1.97;;;33.00;51.00;;;;;;5007273;28;20575;-71
2021/10/02 09:38:14;;;;;;;1.70;1.60;;;32.90;50.50;;;;;;4998273;28;20520;-72
2021/10/02 09:40:49;;;;;;;1.83;1.73;;;32.90;51.20;;;;;;5030994;28;20271;-72
2021/10/02 09:43:14;;;;;;;1.70;1.60;;;32.80;50.20;;;;;;5008303;28;20474;-72
2021/10/02 09:45:40;;;;;;;3.37;2.10;;;32.70;51.00;;;;;;4997884;28;20478;-73
2021/10/02 09:48:10;;;;;;;1.87;1.70;;;32.80;51.80;;;;;;5011148;28;20214;-70
2021/10/02 09:50:38;;;;;;;2.10;2.00;;;32.90;51.30;;;;;;5014964;28;20206;-72
2021/10/02 09:53:08;;;;;;;4.30;1.77;;;33.10;50.40;;;;;;5006424;28;20462;-69
2021/10/02 09:55:45;;;;;;;2.20;2.10;;;33.10;50.90;;;;;;4991981;28;20475;-70
2021/10/02 09:58:14;;;;;;;2.20;1.90;;;33.20;52.30;;;;;;5004127;28;20765;-72
2021/10/02 10:00:43;;;;;;;2.00;1.90;;;33.20;51.30;;;;;;5010207;28;20519;-71
2021/10/02 10:03:15;;;;;;;2.53;2.33;;;33.40;52.10;;;;;;5030574;28;20428;-72
2021/10/02 10:05:48;;;;;;;2.53;2.37;;;33.30;51.60;;;;;;4998664;28;20520;-69
2021/10/02 10:08:26;;;;;;;3.17;2.87;;;33.30;51.30;;;;;;5007269;28;20475;-72
2021/10/02 10:11:07;;;;;;;2.40;2.27;;;33.30;51.30;;;;;;4998947;28;20418;-72
2021/10/02 10:13:33;;;;;;;3.07;2.87;;;32.70;52.40;;;;;;4997573;28;20401;-72
2021/10/02 10:15:59;;;;;;;3.70;2.40;;;32.10;52.40;;;;;;4997251;28;20406;-71
2021/10/02 10:18:29;;;;;;;2.00;1.90;;;31.80;53.40;;;;;;4999620;28;20187;-72
2021/10/02 10:20:59;;;;;;;3.60;2.60;;;31.80;54.30;;;;;;5016279;28;20171;-73
2021/10/02 10:23:33;;;;;;;2.30;2.10;;;31.80;54.00;;;;;;5017041;28;20492;-72
2021/10/02 10:26:15;;;;;;;2.43;2.23;;;31.70;54.70;;;;;;5010644;28;20755;-71
2021/10/02 10:28:43;;;;;;;3.23;3.03;;;31.60;54.00;;;;;;5000129;28;20442;-72
2021/10/02 10:31:14;;;;;;;3.20;2.90;;;31.70;55.00;;;;;;4997930;28;20450;-72
2021/10/02 10:33:43;;;;;;;2.47;2.27;;;31.70;54.60;;;;;;4997239;28;20388;-69
2021/10/02 10:36:12;;;;;;;2.43;2.23;;;31.60;54.10;;;;;;4979238;28;20414;-70
2021/10/02 10:38:39;;;;;;;2.33;2.13;;;31.50;54.20;;;;;;4996250;28;20438;-72
2021/10/02 10:41:06;;;;;;;2.60;2.40;;;31.30;54.50;;;;;;5005321;28;20433;-71
2021/10/02 10:43:34;;;;;;;2.10;2.00;;;31.10;54.80;;;;;;5007240;28;20422;-73
2021/10/02 10:46:02;;;;;;;2.50;2.37;;;30.90;55.20;;;;;;4996780;28;20770;-72
2021/10/02 10:48:28;;;;;;;2.43;2.23;;;30.70;55.50;;;;;;4996062;28;20431;-70
2021/10/02 10:50:58;;;;;;;3.10;2.35;;;30.40;55.60;;;;;;5015641;28;20926;-74
2021/10/02 10:53:36;;;;;;;2.70;2.50;;;30.20;56.20;;;;;;4989264;28;20674;-71
2021/10/02 10:56:03;;;;;;;3.30;2.27;;;29.90;56.90;;;;;;4978871;28;20410;-72
2021/10/02 10:58:30;;;;;;;2.07;1.97;;;29.80;57.30;;;;;;4995974;28;20881;-73
2021/10/02 11:00:57;;;;;;;2.87;2.53;;;29.70;57.40;;;;;;4996339;28;20729;-71
2021/10/02 11:03:39;;;;;;;3.90;2.47;;;29.70;57.60;;;;;;5002741;28;20388;-71
2021/10/02 11:06:07;;;;;;;3.20;2.90;;;29.40;58.00;;;;;;4996228;28;20399;-74
2021/10/02 11:09:06;;;;;;;3.40;3.07;;;28.90;58.90;;;;;;4995524;28;20382;-76
2021/10/02 11:11:44;;;;;;;2.60;2.40;;;28.20;58.40;;;;;;4963820;28;20433;-73
2021/10/02 11:14:18;;;;;;;3.30;3.00;;;27.60;59.80;;;;;;4978623;28;20393;-71
2021/10/02 11:16:46;;;;;;;2.27;2.10;;;26.90;61.10;;;;;;5010114;28;20407;-71
2021/10/02 11:19:37;;;;;;;2.27;2.07;;;26.40;63.20;;;;;;5002901;28;20452;-70
2021/10/02 11:22:47;;;;;;;1.93;1.77;;;26.00;63.80;;;;;;5012796;28;20423;-70
2021/10/02 11:25:22;;;;;;;1.87;1.73;;;25.60;65.20;;;;;;5015634;28;20402;-73
2021/10/02 11:27:54;;;;;;;1.77;1.67;;;25.30;67.70;;;;;;5005627;28;20420;-72
2021/10/02 11:30:21;;;;;;;3.00;2.33;;;25.10;66.30;;;;;;4995829;28;20400;-72
2021/10/02 11:32:47;;;;;;;2.47;2.10;;;24.90;67.20;;;;;;4999829;28;20515;-70
2021/10/02 11:35:30;;;;;;;1.73;1.63;;;24.70;68.10;;;;;;5013450;28;20389;-69
2021/10/02 11:38:00;;;;;;;3.07;2.77;;;24.60;67.90;;;;;;4995391;28;20397;-69
2021/10/02 11:40:31;;;;;;;5.80;5.20;;;24.60;68.90;;;;;;4999247;28;20482;-72
2021/10/02 11:43:12;;;;;;;3.40;3.10;;;24.60;70.10;;;;;;5015167;28;20418;-71
2021/10/02 11:45:44;;;;;;;2.23;2.10;;;24.60;70.70;;;;;;4996710;28;20500;-71
2021/10/02 11:48:15;;;;;;;2.80;2.00;;;24.50;70.40;;;;;;4995108;28;20429;-72
2021/10/02 11:50:43;;;;;;;2.30;2.10;;;24.40;70.40;;;;;;4995332;28;20420;-71
2021/10/02 11:53:12;;;;;;;2.00;1.80;;;24.40;72.00;;;;;;4995251;28;20802;-71
2021/10/02 11:55:43;;;;;;;1.57;1.47;;;24.40;71.70;;;;;;5002743;28;20418;-70
2021/10/02 11:58:12;;;;;;;2.50;2.30;;;24.50;71.50;;;;;;5014096;28;20872;-69
2021/10/02 12:00:44;;;;;;;1.90;1.80;;;24.70;72.40;;;;;;5013562;28;20424;-71
2021/10/02 12:03:16;;;;;;;1.83;1.73;;;24.80;70.80;;;;;;5013230;28;20420;-72
2021/10/02 12:05:43;;;;;;;1.87;1.70;;;24.90;70.60;;;;;;5013023;28;20413;-69
2021/10/02 12:08:13;;;;;;;1.73;1.63;;;24.80;72.00;;;;;;4996559;28;20433;-74
2021/10/02 12:11:03;;;;;;;2.30;1.73;;;25.00;72.00;;;;;;5000479;28;20442;-70
2021/10/02 12:13:33;;;;;;;5.73;2.60;;;25.10;71.40;;;;;;4994817;28;20406;-69
2021/10/02 12:15:58;;;;;;;2.70;2.50;;;25.10;70.50;;;;;;4994711;28;20865;-71
2021/10/02 12:18:25;;;;;;;2.00;1.90;;;25.00;70.80;;;;;;4994500;28;20428;-69
2021/10/02 12:20:50;;;;;;;5.93;2.20;;;25.00;71.80;;;;;;5000939;28;20182;-70
2021/10/02 12:23:16;;;;;;;2.00;1.90;;;25.00;72.30;;;;;;4993556;28;21171;-69
2021/10/02 12:25:42;;;;;;;1.60;1.50;;;25.00;71.70;;;;;;4998132;28;20515;-70
2021/10/02 12:28:07;;;;;;;2.20;2.07;;;25.00;71.90;;;;;;5011965;28;20228;-70
2021/10/02 12:30:33;;;;;;;2.40;2.30;;;24.90;72.00;;;;;;5011888;28;20195;-70
2021/10/02 12:33:03;;;;;;;1.80;1.70;;;24.80;71.70;;;;;;5012028;28;20257;-69
2021/10/02 12:35:30;;;;;;;3.07;2.23;;;24.70;72.00;;;;;;5012837;28;20696;-70
2021/10/02 12:37:56;;;;;;;2.23;2.03;;;24.70;72.90;;;;;;5002077;28;20509;-69
2021/10/02 12:40:26;;;;;;;2.17;2.07;;;24.60;71.90;;;;;;5015014;28;20461;-70
2021/10/02 12:42:55;;;;;;;2.47;2.30;;;24.40;72.60;;;;;;5014128;28;20446;-69
2021/10/02 12:45:26;;;;;;;2.60;2.40;;;24.30;73.30;;;;;;5012798;28;20381;-70
2021/10/02 12:48:00;;;;;;;2.50;2.30;;;24.20;74.20;;;;;;5013678;28;20409;-71
2021/10/02 12:50:37;;;;;;;2.57;2.37;;;24.10;74.80;;;;;;5013799;28;20407;-71
2021/10/02 12:53:04;;;;;;;2.00;1.90;;;24.00;75.30;;;;;;5014377;28;20501;-70
2021/10/02 12:55:30;;;;;;;3.00;2.60;;;23.90;75.50;;;;;;5004430;28;20426;-71
2021/10/02 12:57:56;;;;;;;2.00;1.90;;;23.80;74.60;;;;;;5013641;28;20414;-70
2021/10/02 13:00:26;;;;;;;7.17;2.03;;;23.70;74.90;;;;;;5013925;28;20398;-71
2021/10/02 13:02:55;;;;;;;2.00;1.90;;;23.60;74.80;;;;;;5014022;28;20187;-71
2021/10/02 13:05:25;;;;;;;2.30;2.10;;;23.50;74.90;;;;;;5012699;28;20402;-69
2021/10/02 13:07:59;;;;;;;2.43;2.23;;;23.40;75.60;;;;;;5013361;28;20413;-71
2021/10/02 13:10:27;;;;;;;1.90;1.80;;;23.50;76.30;;;;;;5013437;28;20508;-70
2021/10/02 13:12:59;;;;;;;1.83;1.63;;;23.50;76.80;;;;;;5013461;28;20461;-70
2021/10/02 13:15:33;;;;;;;2.77;1.70;;;23.60;76.80;;;;;;5007204;28;20414;-71
2021/10/02 13:18:12;;;;;;;3.13;2.20;;;23.70;76.20;;;;;;4993706;28;20403;-70
2021/10/02 13:20:40;;;;;;;1.60;1.50;;;23.90;76.40;;;;;;4976446;28;20451;-70
2021/10/02 13:23:10;;;;;;;2.67;2.47;;;24.00;75.90;;;;;;4993943;28;20448;-71
2021/10/02 13:25:59;;;;;;;2.13;1.93;;;24.10;76.90;;;;;;4993956;28;20407;-70
2021/10/02 13:28:56;;;;;;;4.30;2.57;;;24.10;77.20;;;;;;4976691;28;20397;-70
2021/10/02 13:31:29;;;;;;;2.03;1.93;;;24.20;77.00;;;;;;4989836;28;20450;-70
2021/10/02 13:34:08;;;;;;;2.93;2.30;;;24.30;75.40;;;;;;4993917;28;20411;-70
2021/10/02 13:36:37;;;;;;;2.23;2.03;;;24.40;75.20;;;;;;4993394;28;20422;-69
2021/10/02 13:39:14;;;;;;;2.40;2.20;;;24.40;73.90;;;;;;4993532;28;20431;-70
2021/10/02 13:41:43;;;;;;;2.10;1.50;;;24.40;73.70;;;;;;4993965;28;20402;-70
2021/10/02 13:44:09;;;;;;;2.23;2.10;;;24.40;72.60;;;;;;4976275;28;20426;-70
2021/10/02 13:46:37;;;;;;;2.60;1.83;;;24.30;72.40;;;;;;4993144;28;20948;-70
2021/10/02 13:49:09;;;;;;;1.50;1.40;;;24.20;73.20;;;;;;4976819;28;20202;-70